sensor_id;sensor_type;location;lat;lon;timestamp;P1;durP1;ratioP1;P2;durP2;ratioP2
15608;SDS011;64278;45.642;13.756;2022-12-18T00:09:10;3.03;;;2.83;;
15608;SDS011;64278;45.642;13.756;2022-12-18T00:11:36;2.75;;;2.53;;
15608;SDS011;64278;45.642;13.756;2022-12-18T00:14:01;2.80;;;2.60;;
15608;SDS011;64278;45.642;13.756;2022-12-18T00:16:28;3.10;;;2.90;;
15608;SDS011;64278;45.642;13.756;2022-12-18T00:18:56;3.17;;;2.88;;
15608;SDS011;64278;45.642;13.756;2022-12-18T00:21:22;3.55;;;3.25;;
15608;SDS011;64278;45.642;13.756;2022-12-18T00:23:48;2.97;;;2.70;;
15608;SDS011;64278;45.642;13.756;2022-12-18T00:26:16;3.67;;;2.97;;
15608;SDS011;64278;45.642;13.756;2022-12-18T00:28:45;2.70;;;2.50;;
15608;SDS011;64278;45.642;13.756;2022-12-18T00:31:12;2.83;;;2.63;;
15608;SDS011;64278;45.642;13.756;2022-12-18T00:33:42;2.92;;;2.72;;
15608;SDS011;64278;45.642;13.756;2022-12-18T00:38:38;2.58;;;2.38;;
15608;SDS011;64278;45.642;13.756;2022-12-18T00:41:05;2.85;;;2.65;;
15608;SDS011;64278;45.642;13.756;2022-12-18T00:43:31;3.30;;;3.00;;
15608;SDS011;64278;45.642;13.756;2022-12-18T00:45:57;2.75;;;2.53;;
15608;SDS011;64278;45.642;13.756;2022-12-18T00:48:22;2.75;;;2.55;;
15608;SDS011;64278;45.642;13.756;2022-12-18T00:50:49;2.65;;;2.45;;
15608;SDS011;64278;45.642;13.756;2022-12-18T00:53:15;2.65;;;2.45;;
15608;SDS011;64278;45.642;13.756;2022-12-18T00:55:41;3.22;;;2.92;;
15608;SDS011;64278;45.642;13.756;2022-12-18T00:58:08;2.47;;;2.28;;
15608;SDS011;64278;45.642;13.756;2022-12-18T01:00:34;3.63;;;3.33;;
15608;SDS011;64278;45.642;13.756;2022-12-18T01:03:00;3.10;;;2.90;;
15608;SDS011;64278;45.642;13.756;2022-12-18T01:05:26;3.47;;;2.88;;
15608;SDS011;64278;45.642;13.756;2022-12-18T01:07:52;3.97;;;3.20;;
15608;SDS011;64278;45.642;13.756;2022-12-18T01:10:18;2.85;;;2.65;;
15608;SDS011;64278;45.642;13.756;2022-12-18T01:12:44;2.90;;;2.63;;
15608;SDS011;64278;45.642;13.756;2022-12-18T01:15:10;3.25;;;2.95;;
15608;SDS011;64278;45.642;13.756;2022-12-18T01:17:37;3.15;;;2.95;;
15608;SDS011;64278;45.642;13.756;2022-12-18T01:20:03;3.58;;;3.28;;
15608;SDS011;64278;45.642;13.756;2022-12-18T01:22:29;3.35;;;3.05;;
15608;SDS011;64278;45.642;13.756;2022-12-18T01:24:55;3.38;;;3.13;;
15608;SDS011;64278;45.642;13.756;2022-12-18T01:27:20;3.28;;;2.97;;
15608;SDS011;64278;45.642;13.756;2022-12-18T01:29:46;3.28;;;3.03;;
15608;SDS011;64278;45.642;13.756;2022-12-18T01:32:12;3.20;;;3.00;;
15608;SDS011;64278;45.642;13.756;2022-12-18T01:34:37;3.22;;;2.92;;
15608;SDS011;64278;45.642;13.756;2022-12-18T01:37:04;3.35;;;3.15;;
15608;SDS011;64278;45.642;13.756;2022-12-18T01:39:30;3.00;;;2.80;;
15608;SDS011;64278;45.642;13.756;2022-12-18T01:41:57;3.35;;;3.15;;
15608;SDS011;64278;45.642;13.756;2022-12-18T01:47:38;3.55;;;3.00;;
15608;SDS011;64278;45.642;13.756;2022-12-18T01:50:09;3.40;;;3.15;;
15608;SDS011;64278;45.642;13.756;2022-12-18T01:52:35;4.05;;;3.75;;
15608;SDS011;64278;45.642;13.756;2022-12-18T01:55:03;3.55;;;2.90;;
15608;SDS011;64278;45.642;13.756;2022-12-18T01:57:29;3.38;;;3.17;;
15608;SDS011;64278;45.642;13.756;2022-12-18T01:59:57;2.80;;;2.60;;
15608;SDS011;64278;45.642;13.756;2022-12-18T02:02:27;4.07;;;3.78;;
15608;SDS011;64278;45.642;13.756;2022-12-18T02:04:54;3.30;;;3.00;;
15608;SDS011;64278;45.642;13.756;2022-12-18T02:09:50;3.30;;;3.00;;
15608;SDS011;64278;45.642;13.756;2022-12-18T02:15:17;3.25;;;3.05;;
15608;SDS011;64278;45.642;13.756;2022-12-18T02:17:54;4.15;;;3.75;;
15608;SDS011;64278;45.642;13.756;2022-12-18T02:20:40;3.28;;;2.97;;
15608;SDS011;64278;45.642;13.756;2022-12-18T02:28:44;3.72;;;3.45;;
15608;SDS011;64278;45.642;13.756;2022-12-18T02:31:28;3.47;;;3.17;;
15608;SDS011;64278;45.642;13.756;2022-12-18T02:34:01;3.42;;;3.17;;
15608;SDS011;64278;45.642;13.756;2022-12-18T02:36:29;3.55;;;3.25;;
15608;SDS011;64278;45.642;13.756;2022-12-18T02:38:58;3.58;;;3.28;;
15608;SDS011;64278;45.642;13.756;2022-12-18T02:41:26;4.18;;;3.78;;
15608;SDS011;64278;45.642;13.756;2022-12-18T02:43:53;3.80;;;3.50;;
15608;SDS011;64278;45.642;13.756;2022-12-18T02:48:55;3.35;;;3.08;;
15608;SDS011;64278;45.642;13.756;2022-12-18T02:54:23;3.50;;;3.20;;
15608;SDS011;64278;45.642;13.756;2022-12-18T02:56:55;3.47;;;3.17;;
15608;SDS011;64278;45.642;13.756;2022-12-18T03:00:08;4.10;;;3.80;;
15608;SDS011;64278;45.642;13.756;2022-12-18T03:05:30;3.25;;;3.05;;
15608;SDS011;64278;45.642;13.756;2022-12-18T03:08:03;3.92;;;3.63;;
15608;SDS011;64278;45.642;13.756;2022-12-18T03:10:38;3.78;;;3.47;;
15608;SDS011;64278;45.642;13.756;2022-12-18T03:13:16;4.35;;;3.97;;
15608;SDS011;64278;45.642;13.756;2022-12-18T03:15:49;4.22;;;3.92;;
15608;SDS011;64278;45.642;13.756;2022-12-18T03:18:39;3.67;;;3.38;;
15608;SDS011;64278;45.642;13.756;2022-12-18T03:21:07;3.67;;;3.38;;
15608;SDS011;64278;45.642;13.756;2022-12-18T03:23:36;3.90;;;3.60;;
15608;SDS011;64278;45.642;13.756;2022-12-18T03:26:06;4.18;;;3.78;;
15608;SDS011;64278;45.642;13.756;2022-12-18T03:28:37;3.55;;;3.33;;
15608;SDS011;64278;45.642;13.756;2022-12-18T03:31:07;4.03;;;3.72;;
15608;SDS011;64278;45.642;13.756;2022-12-18T03:33:37;3.72;;;3.42;;
15608;SDS011;64278;45.642;13.756;2022-12-18T03:36:27;3.55;;;3.30;;
15608;SDS011;64278;45.642;13.756;2022-12-18T03:38:53;4.20;;;3.90;;
15608;SDS011;64278;45.642;13.756;2022-12-18T03:44:11;3.67;;;3.38;;
15608;SDS011;64278;45.642;13.756;2022-12-18T03:46:47;4.40;;;3.53;;
15608;SDS011;64278;45.642;13.756;2022-12-18T03:49:48;3.60;;;3.30;;
15608;SDS011;64278;45.642;13.756;2022-12-18T03:52:33;4.10;;;3.80;;
15608;SDS011;64278;45.642;13.756;2022-12-18T03:55:03;3.75;;;3.45;;
15608;SDS011;64278;45.642;13.756;2022-12-18T03:57:32;4.25;;;3.90;;
15608;SDS011;64278;45.642;13.756;2022-12-18T04:00:00;4.35;;;3.95;;
15608;SDS011;64278;45.642;13.756;2022-12-18T04:02:31;4.13;;;3.72;;
15608;SDS011;64278;45.642;13.756;2022-12-18T04:04:59;3.90;;;3.50;;
15608;SDS011;64278;45.642;13.756;2022-12-18T04:07:28;3.67;;;3.30;;
15608;SDS011;64278;45.642;13.756;2022-12-18T04:09:54;3.42;;;3.22;;
15608;SDS011;64278;45.642;13.756;2022-12-18T04:12:26;4.55;;;4.15;;
15608;SDS011;64278;45.642;13.756;2022-12-18T04:14:53;4.43;;;4.03;;
15608;SDS011;64278;45.642;13.756;2022-12-18T04:17:19;3.67;;;3.38;;
15608;SDS011;64278;45.642;13.756;2022-12-18T04:19:45;3.55;;;3.25;;
15608;SDS011;64278;45.642;13.756;2022-12-18T04:22:11;3.55;;;3.25;;
15608;SDS011;64278;45.642;13.756;2022-12-18T04:24:37;5.47;;;4.00;;
15608;SDS011;64278;45.642;13.756;2022-12-18T04:27:03;3.72;;;3.42;;
15608;SDS011;64278;45.642;13.756;2022-12-18T04:29:28;4.60;;;4.30;;
15608;SDS011;64278;45.642;13.756;2022-12-18T04:31:54;4.45;;;4.13;;
15608;SDS011;64278;45.642;13.756;2022-12-18T04:34:20;4.35;;;3.90;;
15608;SDS011;64278;45.642;13.756;2022-12-18T04:36:46;4.85;;;4.45;;
15608;SDS011;64278;45.642;13.756;2022-12-18T04:39:11;3.97;;;3.67;;
15608;SDS011;64278;45.642;13.756;2022-12-18T04:41:37;4.55;;;4.22;;
15608;SDS011;64278;45.642;13.756;2022-12-18T04:44:03;4.22;;;3.83;;
15608;SDS011;64278;45.642;13.756;2022-12-18T04:46:29;4.00;;;3.70;;
15608;SDS011;64278;45.642;13.756;2022-12-18T04:48:55;4.40;;;4.03;;
15608;SDS011;64278;45.642;13.756;2022-12-18T04:51:20;4.32;;;4.00;;
15608;SDS011;64278;45.642;13.756;2022-12-18T04:53:46;3.90;;;3.60;;
15608;SDS011;64278;45.642;13.756;2022-12-18T04:56:13;4.10;;;3.80;;
15608;SDS011;64278;45.642;13.756;2022-12-18T04:58:41;4.18;;;3.83;;
15608;SDS011;64278;45.642;13.756;2022-12-18T05:01:08;4.30;;;3.90;;
15608;SDS011;64278;45.642;13.756;2022-12-18T05:03:35;4.45;;;4.05;;
15608;SDS011;64278;45.642;13.756;2022-12-18T05:06:02;4.53;;;4.13;;
15608;SDS011;64278;45.642;13.756;2022-12-18T05:08:28;4.82;;;4.43;;
15608;SDS011;64278;45.642;13.756;2022-12-18T05:11:13;4.40;;;4.10;;
15608;SDS011;64278;45.642;13.756;2022-12-18T05:13:40;4.07;;;3.75;;
15608;SDS011;64278;45.642;13.756;2022-12-18T05:16:07;4.53;;;4.10;;
15608;SDS011;64278;45.642;13.756;2022-12-18T05:18:33;3.95;;;3.65;;
15608;SDS011;64278;45.642;13.756;2022-12-18T05:20:59;4.50;;;4.10;;
15608;SDS011;64278;45.642;13.756;2022-12-18T05:23:26;3.92;;;3.63;;
15608;SDS011;64278;45.642;13.756;2022-12-18T05:28:17;4.55;;;4.15;;
15608;SDS011;64278;45.642;13.756;2022-12-18T05:30:47;4.63;;;4.32;;
15608;SDS011;64278;45.642;13.756;2022-12-18T05:33:14;4.35;;;4.05;;
15608;SDS011;64278;45.642;13.756;2022-12-18T05:35:39;4.43;;;4.03;;
15608;SDS011;64278;45.642;13.756;2022-12-18T05:38:05;4.75;;;4.35;;
15608;SDS011;64278;45.642;13.756;2022-12-18T05:40:31;4.68;;;4.25;;
15608;SDS011;64278;45.642;13.756;2022-12-18T05:42:56;4.30;;;3.90;;
15608;SDS011;64278;45.642;13.756;2022-12-18T05:45:22;5.18;;;4.68;;
15608;SDS011;64278;45.642;13.756;2022-12-18T05:47:47;4.57;;;4.18;;
15608;SDS011;64278;45.642;13.756;2022-12-18T05:50:13;4.78;;;4.38;;
15608;SDS011;64278;45.642;13.756;2022-12-18T05:52:39;4.15;;;3.75;;
15608;SDS011;64278;45.642;13.756;2022-12-18T05:55:04;4.82;;;4.43;;
15608;SDS011;64278;45.642;13.756;2022-12-18T05:57:30;4.13;;;3.80;;
15608;SDS011;64278;45.642;13.756;2022-12-18T05:59:56;5.05;;;4.65;;
15608;SDS011;64278;45.642;13.756;2022-12-18T06:02:21;4.70;;;4.30;;
15608;SDS011;64278;45.642;13.756;2022-12-18T06:04:47;4.45;;;4.05;;
15608;SDS011;64278;45.642;13.756;2022-12-18T06:07:13;4.85;;;4.20;;
15608;SDS011;64278;45.642;13.756;2022-12-18T06:09:38;4.95;;;4.55;;
15608;SDS011;64278;45.642;13.756;2022-12-18T06:12:04;4.78;;;4.38;;
15608;SDS011;64278;45.642;13.756;2022-12-18T06:14:30;4.60;;;4.20;;
15608;SDS011;64278;45.642;13.756;2022-12-18T06:16:55;5.15;;;4.65;;
15608;SDS011;64278;45.642;13.756;2022-12-18T06:19:21;4.85;;;4.45;;
15608;SDS011;64278;45.642;13.756;2022-12-18T06:21:47;4.43;;;4.13;;
15608;SDS011;64278;45.642;13.756;2022-12-18T06:24:14;4.93;;;4.53;;
15608;SDS011;64278;45.642;13.756;2022-12-18T06:26:39;5.03;;;4.63;;
15608;SDS011;64278;45.642;13.756;2022-12-18T06:29:05;5.22;;;4.72;;
15608;SDS011;64278;45.642;13.756;2022-12-18T06:31:31;5.22;;;4.72;;
15608;SDS011;64278;45.642;13.756;2022-12-18T06:33:56;4.72;;;4.40;;
15608;SDS011;64278;45.642;13.756;2022-12-18T06:36:22;4.78;;;4.38;;
15608;SDS011;64278;45.642;13.756;2022-12-18T06:38:48;5.00;;;4.60;;
15608;SDS011;64278;45.642;13.756;2022-12-18T06:41:15;5.00;;;4.60;;
15608;SDS011;64278;45.642;13.756;2022-12-18T06:43:43;5.45;;;4.95;;
15608;SDS011;64278;45.642;13.756;2022-12-18T06:46:09;5.03;;;4.63;;
15608;SDS011;64278;45.642;13.756;2022-12-18T06:48:35;5.38;;;4.97;;
15608;SDS011;64278;45.642;13.756;2022-12-18T06:51:01;5.43;;;4.93;;
15608;SDS011;64278;45.642;13.756;2022-12-18T06:53:28;5.00;;;4.60;;
15608;SDS011;64278;45.642;13.756;2022-12-18T06:56:04;5.05;;;4.65;;
15608;SDS011;64278;45.642;13.756;2022-12-18T06:58:31;5.20;;;4.80;;
15608;SDS011;64278;45.642;13.756;2022-12-18T07:01:01;4.65;;;4.25;;
15608;SDS011;64278;45.642;13.756;2022-12-18T07:03:28;5.80;;;5.30;;
15608;SDS011;64278;45.642;13.756;2022-12-18T07:05:54;5.40;;;4.93;;
15608;SDS011;64278;45.642;13.756;2022-12-18T07:08:19;5.43;;;4.80;;
15608;SDS011;64278;45.642;13.756;2022-12-18T07:10:46;4.47;;;4.07;;
15608;SDS011;64278;45.642;13.756;2022-12-18T07:13:13;5.15;;;4.72;;
15608;SDS011;64278;45.642;13.756;2022-12-18T07:15:40;5.60;;;5.10;;
15608;SDS011;64278;45.642;13.756;2022-12-18T07:18:05;5.25;;;4.75;;
15608;SDS011;64278;45.642;13.756;2022-12-18T07:20:31;4.85;;;4.45;;
15608;SDS011;64278;45.642;13.756;2022-12-18T07:22:57;5.55;;;5.10;;
15608;SDS011;64278;45.642;13.756;2022-12-18T07:25:22;5.32;;;4.82;;
15608;SDS011;64278;45.642;13.756;2022-12-18T07:27:48;5.13;;;4.72;;
15608;SDS011;64278;45.642;13.756;2022-12-18T07:30:14;5.22;;;4.72;;
15608;SDS011;64278;45.642;13.756;2022-12-18T07:32:39;5.95;;;5.22;;
15608;SDS011;64278;45.642;13.756;2022-12-18T07:35:05;5.18;;;4.78;;
15608;SDS011;64278;45.642;13.756;2022-12-18T07:37:31;4.80;;;4.32;;
15608;SDS011;64278;45.642;13.756;2022-12-18T07:39:57;5.45;;;4.95;;
15608;SDS011;64278;45.642;13.756;2022-12-18T07:42:22;5.10;;;4.70;;
15608;SDS011;64278;45.642;13.756;2022-12-18T07:44:57;4.65;;;4.30;;
15608;SDS011;64278;45.642;13.756;2022-12-18T07:47:23;5.07;;;4.65;;
15608;SDS011;64278;45.642;13.756;2022-12-18T07:49:49;5.22;;;4.82;;
15608;SDS011;64278;45.642;13.756;2022-12-18T07:52:15;5.32;;;4.88;;
15608;SDS011;64278;45.642;13.756;2022-12-18T07:54:40;5.22;;;4.82;;
15608;SDS011;64278;45.642;13.756;2022-12-18T07:57:07;5.50;;;5.00;;
15608;SDS011;64278;45.642;13.756;2022-12-18T07:59:33;5.68;;;5.18;;
15608;SDS011;64278;45.642;13.756;2022-12-18T08:01:58;5.15;;;4.75;;
15608;SDS011;64278;45.642;13.756;2022-12-18T08:04:24;5.03;;;4.63;;
15608;SDS011;64278;45.642;13.756;2022-12-18T08:06:50;4.70;;;4.30;;
15608;SDS011;64278;45.642;13.756;2022-12-18T08:09:16;5.07;;;4.68;;
15608;SDS011;64278;45.642;13.756;2022-12-18T08:11:42;5.40;;;4.90;;
15608;SDS011;64278;45.642;13.756;2022-12-18T08:14:08;5.43;;;4.93;;
15608;SDS011;64278;45.642;13.756;2022-12-18T08:16:33;5.70;;;5.18;;
15608;SDS011;64278;45.642;13.756;2022-12-18T08:18:59;5.53;;;5.03;;
15608;SDS011;64278;45.642;13.756;2022-12-18T08:21:26;5.30;;;4.47;;
15608;SDS011;64278;45.642;13.756;2022-12-18T08:23:53;5.13;;;4.72;;
15608;SDS011;64278;45.642;13.756;2022-12-18T08:26:21;4.95;;;4.55;;
15608;SDS011;64278;45.642;13.756;2022-12-18T08:28:47;5.45;;;5.00;;
15608;SDS011;64278;45.642;13.756;2022-12-18T08:31:14;4.75;;;4.35;;
15608;SDS011;64278;45.642;13.756;2022-12-18T08:33:40;5.30;;;4.80;;
15608;SDS011;64278;45.642;13.756;2022-12-18T08:36:06;5.05;;;4.63;;
15608;SDS011;64278;45.642;13.756;2022-12-18T08:38:33;4.88;;;4.43;;
15608;SDS011;64278;45.642;13.756;2022-12-18T08:40:59;5.63;;;5.13;;
15608;SDS011;64278;45.642;13.756;2022-12-18T08:43:26;4.95;;;4.55;;
15608;SDS011;64278;45.642;13.756;2022-12-18T08:46:11;5.03;;;4.63;;
15608;SDS011;64278;45.642;13.756;2022-12-18T08:48:37;5.35;;;4.85;;
15608;SDS011;64278;45.642;13.756;2022-12-18T08:51:03;5.22;;;4.72;;
15608;SDS011;64278;45.642;13.756;2022-12-18T08:53:29;5.32;;;4.93;;
15608;SDS011;64278;45.642;13.756;2022-12-18T08:55:55;5.68;;;5.18;;
15608;SDS011;64278;45.642;13.756;2022-12-18T08:58:21;4.95;;;4.55;;
15608;SDS011;64278;45.642;13.756;2022-12-18T09:00:47;4.90;;;4.40;;
15608;SDS011;64278;45.642;13.756;2022-12-18T09:03:13;5.53;;;4.68;;
15608;SDS011;64278;45.642;13.756;2022-12-18T09:05:41;4.88;;;4.47;;
15608;SDS011;64278;45.642;13.756;2022-12-18T09:08:07;5.53;;;5.05;;
15608;SDS011;64278;45.642;13.756;2022-12-18T09:10:32;5.18;;;4.78;;
15608;SDS011;64278;45.642;13.756;2022-12-18T09:12:58;5.10;;;4.60;;
15608;SDS011;64278;45.642;13.756;2022-12-18T09:15:24;4.72;;;4.32;;
15608;SDS011;64278;45.642;13.756;2022-12-18T09:17:49;5.25;;;4.75;;
15608;SDS011;64278;45.642;13.756;2022-12-18T09:20:17;5.03;;;4.60;;
15608;SDS011;64278;45.642;13.756;2022-12-18T09:22:43;4.55;;;4.15;;
15608;SDS011;64278;45.642;13.756;2022-12-18T09:25:09;4.88;;;4.40;;
15608;SDS011;64278;45.642;13.756;2022-12-18T09:27:35;4.90;;;4.50;;
15608;SDS011;64278;45.642;13.756;2022-12-18T09:30:01;5.30;;;4.80;;
15608;SDS011;64278;45.642;13.756;2022-12-18T09:32:26;5.47;;;4.97;;
15608;SDS011;64278;45.642;13.756;2022-12-18T09:34:52;4.65;;;4.20;;
15608;SDS011;64278;45.642;13.756;2022-12-18T09:37:18;5.30;;;4.78;;
15608;SDS011;64278;45.642;13.756;2022-12-18T09:39:43;4.72;;;4.32;;
15608;SDS011;64278;45.642;13.756;2022-12-18T09:42:14;6.07;;;5.43;;
15608;SDS011;64278;45.642;13.756;2022-12-18T09:44:48;5.03;;;4.57;;
15608;SDS011;64278;45.642;13.756;2022-12-18T09:50:04;5.53;;;5.03;;
15608;SDS011;64278;45.642;13.756;2022-12-18T09:52:49;5.15;;;4.75;;
15608;SDS011;64278;45.642;13.756;2022-12-18T09:57:56;5.75;;;5.25;;
15608;SDS011;64278;45.642;13.756;2022-12-18T10:00:27;5.43;;;4.78;;
15608;SDS011;64278;45.642;13.756;2022-12-18T10:02:55;6.28;;;5.68;;
15608;SDS011;64278;45.642;13.756;2022-12-18T10:13:49;9.60;;;8.70;;
15608;SDS011;64278;45.642;13.756;2022-12-18T10:16:26;8.25;;;7.55;;
15608;SDS011;64278;45.642;13.756;2022-12-18T10:24:33;6.95;;;6.28;;
15608;SDS011;64278;45.642;13.756;2022-12-18T10:27:15;6.40;;;5.90;;
15608;SDS011;64278;45.642;13.756;2022-12-18T10:29:46;6.88;;;6.18;;
15608;SDS011;64278;45.642;13.756;2022-12-18T10:32:16;7.32;;;6.63;;
15608;SDS011;64278;45.642;13.756;2022-12-18T10:34:51;6.97;;;6.38;;
15608;SDS011;64278;45.642;13.756;2022-12-18T10:37:19;7.10;;;6.50;;
15608;SDS011;64278;45.642;13.756;2022-12-18T10:39:47;8.93;;;7.80;;
15608;SDS011;64278;45.642;13.756;2022-12-18T10:42:34;7.65;;;6.70;;
15608;SDS011;64278;45.642;13.756;2022-12-18T10:45:01;7.38;;;6.63;;
15608;SDS011;64278;45.642;13.756;2022-12-18T10:47:31;7.40;;;6.60;;
15608;SDS011;64278;45.642;13.756;2022-12-18T10:49:59;6.75;;;6.15;;
15608;SDS011;64278;45.642;13.756;2022-12-18T10:52:25;7.47;;;6.78;;
15608;SDS011;64278;45.642;13.756;2022-12-18T10:54:55;6.70;;;5.28;;
15608;SDS011;64278;45.642;13.756;2022-12-18T10:59:56;7.63;;;6.32;;
15608;SDS011;64278;45.642;13.756;2022-12-18T11:02:35;7.15;;;6.45;;
15608;SDS011;64278;45.642;13.756;2022-12-18T11:05:03;8.30;;;6.53;;
15608;SDS011;64278;45.642;13.756;2022-12-18T11:07:50;7.68;;;6.72;;
15608;SDS011;64278;45.642;13.756;2022-12-18T11:10:19;7.68;;;6.85;;
15608;SDS011;64278;45.642;13.756;2022-12-18T11:12:46;8.45;;;6.57;;
15608;SDS011;64278;45.642;13.756;2022-12-18T11:15:20;7.00;;;6.35;;
15608;SDS011;64278;45.642;13.756;2022-12-18T11:17:50;6.70;;;6.10;;
15608;SDS011;64278;45.642;13.756;2022-12-18T11:23:05;6.82;;;6.22;;
15608;SDS011;64278;45.642;13.756;2022-12-18T11:25:37;6.82;;;6.22;;
15608;SDS011;64278;45.642;13.756;2022-12-18T11:28:04;7.05;;;6.40;;
15608;SDS011;64278;45.642;13.756;2022-12-18T11:30:50;7.10;;;6.40;;
15608;SDS011;64278;45.642;13.756;2022-12-18T11:36:36;8.02;;;7.32;;
15608;SDS011;64278;45.642;13.756;2022-12-18T11:39:30;7.18;;;6.47;;
15608;SDS011;64278;45.642;13.756;2022-12-18T11:42:20;6.90;;;6.25;;
15608;SDS011;64278;45.642;13.756;2022-12-18T11:44:51;7.45;;;6.30;;
15608;SDS011;64278;45.642;13.756;2022-12-18T11:47:47;6.47;;;5.88;;
15608;SDS011;64278;45.642;13.756;2022-12-18T11:50:19;7.65;;;6.57;;
15608;SDS011;64278;45.642;13.756;2022-12-18T11:52:50;7.60;;;6.80;;
15608;SDS011;64278;45.642;13.756;2022-12-18T11:55:31;10.30;;;7.35;;
15608;SDS011;64278;45.642;13.756;2022-12-18T11:58:12;9.02;;;7.20;;
15608;SDS011;64278;45.642;13.756;2022-12-18T12:01:09;9.50;;;7.97;;
15608;SDS011;64278;45.642;13.756;2022-12-18T12:09:12;13.88;;;8.30;;
15608;SDS011;64278;45.642;13.756;2022-12-18T12:12:15;9.15;;;7.90;;
15608;SDS011;64278;45.642;13.756;2022-12-18T12:20:20;10.45;;;7.43;;
15608;SDS011;64278;45.642;13.756;2022-12-18T12:22:55;10.85;;;7.47;;
15608;SDS011;64278;45.642;13.756;2022-12-18T12:25:37;15.70;;;8.45;;
15608;SDS011;64278;45.642;13.756;2022-12-18T12:28:14;15.52;;;8.85;;
15608;SDS011;64278;45.642;13.756;2022-12-18T12:31:09;33.85;;;12.70;;
15608;SDS011;64278;45.642;13.756;2022-12-18T12:34:16;35.90;;;14.55;;
15608;SDS011;64278;45.642;13.756;2022-12-18T12:39:34;25.13;;;13.85;;
15608;SDS011;64278;45.642;13.756;2022-12-18T12:42:03;25.52;;;13.88;;
15608;SDS011;64278;45.642;13.756;2022-12-18T12:44:54;27.35;;;14.35;;
15608;SDS011;64278;45.642;13.756;2022-12-18T12:47:28;23.55;;;13.43;;
15608;SDS011;64278;45.642;13.756;2022-12-18T12:49:59;28.40;;;13.95;;
15608;SDS011;64278;45.642;13.756;2022-12-18T12:55:03;21.30;;;14.50;;
15608;SDS011;64278;45.642;13.756;2022-12-18T12:57:39;24.67;;;14.15;;
15608;SDS011;64278;45.642;13.756;2022-12-18T13:00:14;20.98;;;13.00;;
15608;SDS011;64278;45.642;13.756;2022-12-18T13:02:56;24.25;;;13.73;;
15608;SDS011;64278;45.642;13.756;2022-12-18T13:05:38;23.40;;;12.43;;
15608;SDS011;64278;45.642;13.756;2022-12-18T13:08:27;20.23;;;12.18;;
15608;SDS011;64278;45.642;13.756;2022-12-18T13:10:57;26.55;;;13.27;;
15608;SDS011;64278;45.642;13.756;2022-12-18T13:13:52;21.88;;;12.98;;
15608;SDS011;64278;45.642;13.756;2022-12-18T13:16:21;21.45;;;13.15;;
15608;SDS011;64278;45.642;13.756;2022-12-18T13:18:55;26.00;;;12.57;;
15608;SDS011;64278;45.642;13.756;2022-12-18T13:23:54;16.90;;;11.73;;
15608;SDS011;64278;45.642;13.756;2022-12-18T13:28:52;14.90;;;11.48;;
15608;SDS011;64278;45.642;13.756;2022-12-18T13:34:15;13.70;;;10.00;;
15608;SDS011;64278;45.642;13.756;2022-12-18T13:36:48;15.38;;;9.82;;
15608;SDS011;64278;45.642;13.756;2022-12-18T13:41:44;13.07;;;9.48;;
15608;SDS011;64278;45.642;13.756;2022-12-18T13:47:00;14.02;;;8.63;;
15608;SDS011;64278;45.642;13.756;2022-12-18T13:52:16;11.30;;;8.43;;
15608;SDS011;64278;45.642;13.756;2022-12-18T13:54:45;16.30;;;8.48;;
15608;SDS011;64278;45.642;13.756;2022-12-18T13:57:58;13.27;;;8.95;;
15608;SDS011;64278;45.642;13.756;2022-12-18T14:00:40;14.38;;;8.82;;
15608;SDS011;64278;45.642;13.756;2022-12-18T14:02:58;11.00;;;8.45;;
15608;SDS011;64278;45.642;13.756;2022-12-18T14:05:28;12.38;;;8.43;;
15608;SDS011;64278;45.642;13.756;2022-12-18T14:08:00;9.18;;;7.85;;
15608;SDS011;64278;45.642;13.756;2022-12-18T14:10:35;9.60;;;7.65;;
15608;SDS011;64278;45.642;13.756;2022-12-18T14:13:05;11.80;;;7.82;;
15608;SDS011;64278;45.642;13.756;2022-12-18T14:15:43;10.13;;;7.40;;
15608;SDS011;64278;45.642;13.756;2022-12-18T14:21:06;9.88;;;8.10;;
15608;SDS011;64278;45.642;13.756;2022-12-18T14:23:43;12.60;;;7.85;;
15608;SDS011;64278;45.642;13.756;2022-12-18T14:28:54;10.38;;;7.45;;
15608;SDS011;64278;45.642;13.756;2022-12-18T14:31:26;10.50;;;7.93;;
15608;SDS011;64278;45.642;13.756;2022-12-18T14:33:54;9.30;;;7.38;;
15608;SDS011;64278;45.642;13.756;2022-12-18T14:36:22;9.68;;;7.35;;
15608;SDS011;64278;45.642;13.756;2022-12-18T14:38:50;9.65;;;7.43;;
15608;SDS011;64278;45.642;13.756;2022-12-18T14:41:18;10.18;;;8.23;;
15608;SDS011;64278;45.642;13.756;2022-12-18T14:43:52;9.20;;;8.30;;
15608;SDS011;64278;45.642;13.756;2022-12-18T14:46:29;9.25;;;7.55;;
15608;SDS011;64278;45.642;13.756;2022-12-18T14:48:56;7.65;;;6.85;;
15608;SDS011;64278;45.642;13.756;2022-12-18T14:51:25;7.65;;;6.80;;
15608;SDS011;64278;45.642;13.756;2022-12-18T14:54:14;11.15;;;8.10;;
15608;SDS011;64278;45.642;13.756;2022-12-18T14:56:44;8.70;;;6.70;;
15608;SDS011;64278;45.642;13.756;2022-12-18T14:59:15;10.00;;;6.53;;
15608;SDS011;64278;45.642;13.756;2022-12-18T15:01:46;7.45;;;6.60;;
15608;SDS011;64278;45.642;13.756;2022-12-18T15:04:32;6.78;;;6.10;;
15608;SDS011;64278;45.642;13.756;2022-12-18T15:12:28;7.93;;;6.93;;
15608;SDS011;64278;45.642;13.756;2022-12-18T15:14:59;8.00;;;6.97;;
15608;SDS011;64278;45.642;13.756;2022-12-18T15:17:25;7.30;;;6.68;;
15608;SDS011;64278;45.642;13.756;2022-12-18T15:19:52;7.38;;;6.07;;
15608;SDS011;64278;45.642;13.756;2022-12-18T15:22:33;7.28;;;6.50;;
15608;SDS011;64278;45.642;13.756;2022-12-18T15:25:00;6.95;;;6.25;;
15608;SDS011;64278;45.642;13.756;2022-12-18T15:29:59;8.38;;;7.15;;
15608;SDS011;64278;45.642;13.756;2022-12-18T15:32:28;6.88;;;6.00;;
15608;SDS011;64278;45.642;13.756;2022-12-18T15:37:35;7.45;;;6.65;;
15608;SDS011;64278;45.642;13.756;2022-12-18T15:40:02;6.97;;;6.28;;
15608;SDS011;64278;45.642;13.756;2022-12-18T15:42:28;5.95;;;5.45;;
15608;SDS011;64278;45.642;13.756;2022-12-18T15:45:13;7.80;;;6.63;;
15608;SDS011;64278;45.642;13.756;2022-12-18T15:47:40;7.13;;;6.47;;
15608;SDS011;64278;45.642;13.756;2022-12-18T15:50:08;7.25;;;6.47;;
15608;SDS011;64278;45.642;13.756;2022-12-18T15:52:45;7.10;;;6.40;;
15608;SDS011;64278;45.642;13.756;2022-12-18T15:55:22;6.93;;;6.32;;
15608;SDS011;64278;45.642;13.756;2022-12-18T15:58:08;7.00;;;6.40;;
15608;SDS011;64278;45.642;13.756;2022-12-18T16:00:35;7.10;;;6.40;;
15608;SDS011;64278;45.642;13.756;2022-12-18T16:03:03;6.65;;;5.97;;
15608;SDS011;64278;45.642;13.756;2022-12-18T16:05:30;6.50;;;5.93;;
15608;SDS011;64278;45.642;13.756;2022-12-18T16:07:56;6.68;;;5.82;;
15608;SDS011;64278;45.642;13.756;2022-12-18T16:10:22;6.70;;;6.10;;
15608;SDS011;64278;45.642;13.756;2022-12-18T16:12:49;5.88;;;5.38;;
15608;SDS011;64278;45.642;13.756;2022-12-18T16:15:15;7.28;;;6.43;;
15608;SDS011;64278;45.642;13.756;2022-12-18T16:17:41;6.85;;;6.25;;
15608;SDS011;64278;45.642;13.756;2022-12-18T16:20:17;7.25;;;6.40;;
15608;SDS011;64278;45.642;13.756;2022-12-18T16:22:47;6.55;;;5.53;;
15608;SDS011;64278;45.642;13.756;2022-12-18T16:25:34;6.93;;;6.32;;
15608;SDS011;64278;45.642;13.756;2022-12-18T16:27:59;6.32;;;5.72;;
15608;SDS011;64278;45.642;13.756;2022-12-18T16:30:26;7.70;;;6.10;;
15608;SDS011;64278;45.642;13.756;2022-12-18T16:32:54;5.97;;;5.47;;
15608;SDS011;64278;45.642;13.756;2022-12-18T16:35:20;6.28;;;5.72;;
15608;SDS011;64278;45.642;13.756;2022-12-18T16:37:45;5.82;;;5.20;;
15608;SDS011;64278;45.642;13.756;2022-12-18T16:40:13;6.57;;;5.70;;
15608;SDS011;64278;45.642;13.756;2022-12-18T16:42:40;7.10;;;5.93;;
15608;SDS011;64278;45.642;13.756;2022-12-18T16:45:08;6.82;;;5.97;;